Logo AVAMET
Benvolgut visitant, si us plau, ingressa Recuperar contrasenya

Oriola R. de Bonanza

Dades diàries. Acumulats / Últims 30 dies disponibles

Data Temperatura (°C) Humitat rel. (%) Pressió rel. (hPa) Vent (km/h) Precipitació
Mínima Mitjana Màxima Amplitud
tèrmica
Mínima Mitjana Màxima Mínima Mitjana Màxima Predom. Mitjana Ràfega
màxima
Total
(mm)
Índex-n
Mínima Mitjana Màxima Mínima Mitjana Màxima n
0 a 1
P0 max
mm 5'
Dades mensuals acumulades fins l'últim dia disponible
01/2020 2,3 6,2 9,8 10,8 10,5 15,7 19,9 17,6 35 76 97 1.011 1.023 1.032   3,4 64,4 84,6
Dades anuals acumulades fins l'últim dia disponible
2020 2,3 6,2 9,8 10,8 10,5 15,7 19,9 17,6 35 76 97 1.011 1.023 1.032   3,4 64,4 84,6
Últims 30 dies disponibles
25-01-2020 9,8     12,0     15,0 5,2 79 88 95 1.017 1.019 1.021 SSO 0,8 19,3 0,0
24-01-2020 9,6     12,4     14,9 5,3 75 84 92 1.020 1.021 1.022 S 2,2 17,7 0,0
23-01-2020 7,2     11,0     15,6 8,4 74 87 94 1.019 1.020 1.022 SSE 2,7 17,7 0,0
22-01-2020 7,2     10,9     16,1 8,9 64 87 97 1.016 1.017 1.019 S 1,7 19,3 0,6
21-01-2020 7,6     10,0     12,2 4,6 75 87 95 1.011 1.013 1.018 SO 6,0 40,2 52,0 0,58 4,90
20-01-2020 7,4     8,8     10,5 3,1 64 77 94 1.014 1.016 1.018 OSO 10,4 64,4 28,0 0,97 11,00
19-01-2020 7,6     10,8     14,3 6,7 58 70 89 1.014 1.016 1.020 OSO 12,5 62,8 3,8 0,41 1,10
18-01-2020 7,8     11,2     15,2 7,4 63 75 83 1.020 1.028 1.032 SSO 1,7 24,1 0,0
17-01-2020 4,5     12,4     19,9 15,4 40 64 86 1.028 1.030 1.032 SO 3,2 35,4 0,0
16-01-2020 4,3     10,8     18,5 14,2 46 69 86 1.026 1.028 1.029 SO 0,3 8,0 0,0
15-01-2020 3,3     9,7     17,4 14,1 46 69 86 1.024 1.026 1.028 SO 0,9 24,1 0,0
14-01-2020 2,7     8,9     16,1 13,4 36 70 92 1.021 1.023 1.024 SSO 1,8 22,5 0,0
13-01-2020 2,3     8,4     14,9 12,6 55 79 94 1.023 1.026 1.030 SO 1,1 20,9 0,2
12-01-2020 3,3     9,2     17,2 13,9 35 75 93 1.028 1.030 1.031 SO 1,9 19,3 0,0
11-01-2020 7,2     12,5     16,4 9,2 46 67 90 1.027 1.029 1.031 SO 3,9 25,7 0,0
10-01-2020 6,5     11,5     16,6 10,1 44 72 93 1.023 1.025 1.028 SO 5,5 43,5 0,0
09-01-2020 7,8     12,8     15,7 7,9 61 74 83 1.025 1.026 1.027 SO 1,3 16,1 0,0
30-12-2019 7,2     8,3     10,7 3,5 90 93 94 1.031 1.032 1.034 SO 0,1 4,8 0,0
29-12-2019 7,3     11,0     16,1 8,8 68 86 96 1.030 1.032 1.034 SO 0,9 12,9 0,2
28-12-2019 7,8     11,0     15,7 7,9 69 89 96 1.029 1.030 1.032 SSE 1,0 17,7 0,2
27-12-2019 7,8     12,3     17,3 9,5 67 81 91 1.028 1.029 1.031 SSO 0,5 14,5 0,0
25-12-2019 7,1     14,5     18,9 11,8 58 71 90 1.023 1.024 1.026 OSO 0,0 6,4 0,0
24-12-2019 8,0     14,4     22,1 14,1 47 71 87 1.025 1.027 1.030 SO 2,3 25,7 0,0
23-12-2019 11,3     15,6     21,4 10,1 45 64 80 1.021 1.025 1.028 SO 2,4 41,8 0,0
22-12-2019 18,4     20,4     23,0 4,6 36 43 54 1.010 1.016 1.021 S 11,6 75,6 0,0
21-12-2019 15,1     19,7     22,8 7,7 36 67 86 1.004 1.006 1.010 SSE 4,5 51,5 0,0
20-12-2019 11,1     16,4     19,9 8,8 71 80 90 1.003 1.006 1.011 SSO 2,0 30,6 1,2 0,20
19-12-2019 5,7     9,2     12,9 7,2 69 81 89 1.011 1.016 1.019 SO 0,9 20,9 0,0
18-12-2019 8,4     13,7     16,8 8,4 42 57 77 1.013 1.017 1.020 OSO 7,8 45,1 0,0
17-12-2019 9,6     13,2     17,1 7,5 58 80 94 1.001 1.005 1.013 SSO 1,9 38,6 0,0
Últims 13 mesos disponibles
12/2019 5,7 10,2 18,4 13,9 10,7 17,9 23,0 17,3 42 72 93 1.005 1.018 1.032 SO 4,1 75,6 43,6
11/2019 5,4 11,7 20,1 16,0 14,6 19,8 28,4 23,0 44 58 92 1.000 1.012 1.019 SSO 6,4 77,2 12,8
10/2019 10,4 15,5 21,1 20,5 16,9 26,4 34,6 24,2 45 70 86 1.009 1.017 1.022 S 2,8 58,0 26,8
09/2019 15,9 20,2 23,9 24,3 22,2 29,1 34,3 18,4 46 74 86 1.010 1.017 1.022 S 4,1 69,0 503,4
08/2019 19,1 22,2 25,2 27,3 28,8 33,2 41,8 22,7 47 69 79 1.011 1.016 1.020 SE 4,6 60,0 16,2
07/2019 20,4 22,6 26,4 27,9 29,4 33,6 39,8 19,4 36 60 75 1.006 1.014 1.020 SE 5,7 52,0 0,2
06/2019 13,4 18,0 22,7 24,2 24,2 30,1 35,9 22,5 38 59 73 1.009 1.015 1.022 SSE 5,6 50,0 0,6
05/2019 11,2 14,9 21,4 20,3 21,7 26,2 32,2 21,0 45 63 74 1.006 1.015 1.025 SSE 5,0 63,0 4,0
04/2019 8,6 12,0 15,0 16,4 14,6 21,5 28,8 20,2 44 64 89 1.000 1.013 1.025 S 5,6 69,0 127,2
03/2019 4,4 8,5 13,1 14,5 13,6 21,0 28,2 23,8 37 63 88 1.011 1.023 1.031 S 3,8 52,0 26,6
02/2019 4,1 6,8 11,1 12,7 14,5 19,6 27,1 23,0 34 63 79 997 1.025 1.033 SSO 3,7 66,0 0,4
Tots els anys disponibles
2019 4,1 15,0 26,4 20,0 10,7 25,5 41,8 37,7 34 65 93 997 1.017 1.033 SSE 4,7 77,2 761,8
Temperatura (°C)
Humitat relativa (%)
Velocitat del vent i ràfega màxima (km/h)
Direcció del vent (°)
Pressió (hPa)
Precipitació (mm)
Nota sobre les dades: s'avisa a l'usuari de la provisionalitat i no oficialitat d'aquestes dades
Logo AVAMET blanc
Web allotjada a Sollutia
Llicència de Creative CommonsLa web d'AVAMET i els seus continguts estan subjectes a una llicència de
Reconeixement - No Comercial - Compartir igual
Últimes estacions: Xixona - Els Ameradors (Soci), Agres - El Tossal (Soci), Xàbia - Bevenguts (MeteoXàbia), Llíria (Aj. Soci/Inforatge), Orihuela - Lo Capitán, Cox & Guardamar del Segura - horta (Meteorihuela), l'Alcúdia - Carriona & el Real de Gandia (Inforatge), Benicàssim - les Vil·les (Soci),  l'Alfàs del Pi - l'Albir (Soci), - - -